Terminal Aerodrome Forecast
Issued by NWS

Home | Current Version | Previous Version | Text Only | Print | Product List | Glossary On
Versions: 1 2 3 4 5 6 7 8 9 10 11 12 13 14 15 16 17 18 19 20 21 22 23 24 25 26 27 28 29 30 31 32 33 34 35 36 37 38
000
FTUS43 KMKX 182334
TAFUES
TAF
KUES 182334Z 1900/1924 06012KT P6SM SCT250
     FM190300 09008KT P6SM SCT200 WS020/12045KT
     FM191100 10008KT P6SM BKN110 WS020/12045KT
     FM192000 09011G18KT P6SM -SHRA OVC040
     FM192200 08011KT 3SM -SHRA OVC015=

USA.gov is the U.S. government's official web portal to all federal, state and local government web resources and services.